Time;durP1;ratioP1;P1;durP2;ratioP2;P2;SDS_P1;SDS_P2;PMS_P1;PMS_P2;Temp;Humidity;BMP_temperature;BMP_pressure;BME280_temperature;BME280_humidity;BME280_pressure;Samples;Min_cycle;Max_cycle;Signal;HPM_P1;HPM_P2
2022/07/29 00:00:58;;;;;;;4.43;4.07;;;;;;;;;;5093746;28;20987;-70
2022/07/29 00:03:25;;;;;;;3.53;3.23;;;;;;;;;;5093834;28;20468;-71
2022/07/29 00:05:54;;;;;;;6.13;3.97;;;;;;;;;;5102135;28;20436;-71
2022/07/29 00:08:21;;;;;;;3.50;3.20;;;;;;;;;;5096068;28;20441;-71
2022/07/29 00:10:48;;;;;;;4.20;3.40;;;;;;;;;;5092262;28;20441;-75
2022/07/29 00:13:15;;;;;;;4.10;3.70;;;;;;;;;;5090501;28;20939;-71
2022/07/29 00:15:43;;;;;;;5.93;4.13;;;;;;;;;;5093811;28;20439;-71
2022/07/29 00:18:10;;;;;;;4.27;3.73;;;;;;;;;;5092333;28;20434;-71
2022/07/29 00:20:37;;;;;;;3.13;2.87;;;;;;;;;;5092980;28;20477;-73
2022/07/29 00:23:05;;;;;;;4.53;4.13;;;;;;;;;;5093176;28;20531;-68
2022/07/29 00:25:33;;;;;;;4.30;3.90;;;;;;;;;;5093125;28;20437;-68
2022/07/29 00:28:00;;;;;;;5.77;4.00;;;;;;;;;;5092572;28;20527;-68
2022/07/29 00:30:27;;;;;;;4.00;3.60;;;;;;;;;;5094728;28;20444;-68
2022/07/29 00:32:55;;;;;;;4.67;3.97;;;;;;;;;;5092269;28;20453;-67
2022/07/29 00:38:08;;;;;;;3.97;3.57;;;;;;;;;;5081285;28;20443;-67
2022/07/29 00:40:35;;;;;;;3.60;3.30;;;;;;;;;;5091773;28;20503;-67
2022/07/29 00:43:03;;;;;;;4.10;3.43;;;;;;;;;;5091148;28;20488;-66
2022/07/29 00:45:30;;;;;;;5.30;3.97;;;;;;;;;;5091463;28;20496;-67
2022/07/29 00:47:57;;;;;;;4.57;3.60;;;;;;;;;;5091535;28;20438;-66
2022/07/29 00:50:25;;;;;;;4.90;3.77;;;;;;;;;;5092693;28;20445;-66
2022/07/29 00:52:52;;;;;;;4.80;4.37;;;;;;;;;;5091706;28;20433;-66
2022/07/29 00:55:21;;;;;;;4.40;3.60;;;;;;;;;;5092446;28;20455;-67
2022/07/29 00:57:48;;;;;;;5.90;3.43;;;;;;;;;;5091733;28;20444;-67
2022/07/29 01:00:17;;;;;;;4.00;3.30;;;;;;;;;;5092413;28;20487;-66
2022/07/29 01:02:44;;;;;;;4.43;4.03;;;;;;;;;;5091681;28;20443;-67
2022/07/29 01:05:12;;;;;;;3.63;3.33;;;;;;;;;;5091746;28;20445;-66
2022/07/29 01:07:40;;;;;;;3.70;3.40;;;;;;;;;;5091580;28;20855;-66
2022/07/29 01:10:08;;;;;;;4.00;3.30;;;;;;;;;;5092153;28;20759;-67
2022/07/29 01:12:38;;;;;;;3.80;3.40;;;;;;;;;;5091221;28;20520;-66
2022/07/29 01:15:06;;;;;;;3.90;3.60;;;;;;;;;;5098518;28;20531;-67
2022/07/29 01:17:35;;;;;;;3.70;3.40;;;;;;;;;;5095666;28;20444;-67
2022/07/29 01:20:05;;;;;;;4.20;3.80;;;;;;;;;;5091771;28;20970;-66
2022/07/29 01:22:53;;;;;;;3.73;3.20;;;;;;;;;;5091829;28;20452;-68
2022/07/29 01:25:40;;;;;;;3.50;3.20;;;;;;;;;;5071295;28;20859;-66
2022/07/29 01:28:19;;;;;;;3.67;3.33;;;;;;;;;;5089606;28;20789;-66
2022/07/29 01:30:48;;;;;;;3.80;2.97;;;;;;;;;;5091253;28;20930;-66
2022/07/29 01:36:00;;;;;;;4.00;3.43;;;;;;;;;;5094125;28;20456;-67
2022/07/29 01:38:28;;;;;;;3.93;3.63;;;;;;;;;;5091510;28;21012;-67
2022/07/29 01:41:00;;;;;;;4.53;3.53;;;;;;;;;;5091067;28;20476;-66
2022/07/29 01:43:31;;;;;;;3.73;3.43;;;;;;;;;;5091535;28;20424;-67
2022/07/29 01:46:02;;;;;;;4.10;3.50;;;;;;;;;;5090173;28;21014;-67
2022/07/29 01:48:33;;;;;;;4.13;3.73;;;;;;;;;;5091222;28;20513;-66
2022/07/29 01:51:03;;;;;;;3.63;3.33;;;;;;;;;;5091981;28;20468;-66
2022/07/29 01:53:32;;;;;;;3.47;3.13;;;;;;;;;;5091575;28;20437;-66
2022/07/29 01:56:01;;;;;;;3.90;3.47;;;;;;;;;;5090814;28;20487;-67
2022/07/29 01:58:30;;;;;;;3.30;3.10;;;;;;;;;;5091092;28;20908;-67
2022/07/29 02:00:57;;;;;;;3.47;3.00;;;;;;;;;;5086589;28;20464;-67
2022/07/29 02:03:27;;;;;;;7.63;4.40;;;;;;;;;;5090288;28;20854;-67
2022/07/29 02:05:55;;;;;;;4.23;3.83;;;;;;;;;;5092048;28;20851;-66
2022/07/29 02:08:22;;;;;;;4.50;3.10;;;;;;;;;;5090979;28;20429;-66
2022/07/29 02:10:50;;;;;;;3.73;3.40;;;;;;;;;;5090270;28;20998;-66
2022/07/29 02:13:18;;;;;;;4.10;3.10;;;;;;;;;;5090745;28;20474;-67
2022/07/29 02:15:46;;;;;;;3.80;3.17;;;;;;;;;;5089987;28;20443;-67
2022/07/29 02:18:16;;;;;;;8.30;3.30;;;;;;;;;;5090842;28;20433;-69
2022/07/29 02:20:46;;;;;;;3.70;2.70;;;;;;;;;;5090747;28;20480;-69
2022/07/29 02:23:14;;;;;;;4.77;3.67;;;;;;;;;;5091464;28;20511;-70
2022/07/29 02:25:42;;;;;;;4.10;3.30;;;;;;;;;;5098171;28;20442;-69
2022/07/29 02:28:10;;;;;;;5.50;3.33;;;;;;;;;;5100412;28;21178;-69
2022/07/29 02:30:38;;;;;;;3.27;2.97;;;;;;;;;;5090724;28;20835;-69
2022/07/29 02:33:05;;;;;;;4.00;3.27;;;;;;;;;;5091438;28;20802;-70
2022/07/29 02:35:33;;;;;;;3.93;3.53;;;;;;;;;;5094696;28;20556;-69
2022/07/29 02:40:47;;;;;;;3.73;3.17;;;;;;;;;;5089665;28;21039;-67
2022/07/29 02:43:15;;;;;;;6.43;3.57;;;;;;;;;;5090713;28;20437;-66
2022/07/29 02:45:42;;;;;;;3.10;2.80;;;;;;;;;;5090545;28;20432;-66
2022/07/29 02:48:14;;;;;;;4.30;3.80;;;;;;;;;;5091126;28;20440;-66
2022/07/29 02:50:45;;;;;;;3.30;3.00;;;;;;;;;;5090194;28;20790;-66
2022/07/29 02:53:17;;;;;;;4.13;2.97;;;;;;;;;;5091181;28;20440;-66
2022/07/29 02:55:45;;;;;;;2.70;2.50;;;;;;;;;;5086220;28;20429;-66
2022/07/29 02:58:17;;;;;;;4.60;2.80;;;;;;;;;;5090723;28;20441;-66
2022/07/29 03:00:44;;;;;;;3.07;2.80;;;;;;;;;;5089894;28;21083;-66
2022/07/29 03:03:13;;;;;;;2.80;2.60;;;;;;;;;;5090890;28;20523;-66
2022/07/29 03:05:41;;;;;;;4.33;3.10;;;;;;;;;;5097926;28;20463;-66
2022/07/29 03:08:10;;;;;;;3.83;3.33;;;;;;;;;;5095301;28;20443;-66
2022/07/29 03:10:40;;;;;;;3.57;3.27;;;;;;;;;;5089416;28;20992;-66
2022/07/29 03:13:09;;;;;;;2.80;2.57;;;;;;;;;;5090059;28;20498;-66
2022/07/29 03:15:36;;;;;;;3.17;2.80;;;;;;;;;;5090098;28;20451;-66
2022/07/29 03:18:04;;;;;;;2.60;2.40;;;;;;;;;;5092024;28;20445;-66
2022/07/29 03:20:31;;;;;;;2.23;2.07;;;;;;;;;;5084454;28;20473;-67
2022/07/29 03:22:58;;;;;;;3.17;2.40;;;;;;;;;;5093382;28;20780;-66
2022/07/29 03:25:26;;;;;;;3.33;3.03;;;33.10;1.00;;;;;;5094302;28;20864;-66
2022/07/29 03:27:56;;;;;;;2.57;2.37;;;19.60;99.90;;;;;;5093666;28;20753;-66
2022/07/29 03:30:24;;;;;;;3.40;2.80;;;19.50;99.90;;;;;;5093726;28;20445;-66
2022/07/29 03:32:51;;;;;;;3.20;3.00;;;19.40;99.90;;;;;;5093363;28;20453;-66
2022/07/29 03:35:19;;;;;;;2.80;2.50;;;19.30;99.90;;;;;;5094399;28;20478;-66
2022/07/29 03:37:46;;;;;;;3.00;2.70;;;19.10;99.90;;;;;;5093218;28;20437;-66
2022/07/29 03:40:18;;;;;;;3.73;3.27;;;19.00;99.90;;;;;;5093523;28;20451;-66
2022/07/29 03:42:46;;;;;;;2.97;2.70;;;18.90;99.90;;;;;;5093002;28;20448;-66
2022/07/29 03:45:18;;;;;;;2.60;2.13;;;18.90;99.90;;;;;;5093602;28;20437;-66
2022/07/29 03:47:50;;;;;;;3.20;3.00;;;19.00;99.90;;;;;;5093359;28;20440;-66
2022/07/29 03:50:20;;;;;;;3.40;2.90;;;19.00;99.90;;;;;;5093387;28;20445;-66
2022/07/29 03:52:48;;;;;;;2.83;2.63;;;18.80;99.90;;;;;;5092955;28;20441;-67
2022/07/29 03:55:15;;;;;;;3.00;2.73;;;18.80;99.90;;;;;;5093207;28;20525;-66
2022/07/29 03:57:43;;;;;;;3.37;3.00;;;18.60;99.90;;;;;;5093034;28;20445;-66
2022/07/29 04:00:11;;;;;;;3.37;3.07;;;18.70;99.90;;;;;;5093389;28;20536;-67
2022/07/29 04:02:40;;;;;;;2.53;2.23;;;18.70;99.90;;;;;;5092304;28;20455;-66
2022/07/29 04:05:13;;;;;;;3.43;3.13;;;18.80;99.90;;;;;;5094467;28;20448;-67
2022/07/29 04:07:40;;;;;;;4.00;2.97;;;18.70;99.90;;;;;;5089514;28;20441;-67
2022/07/29 04:10:08;;;;;;;3.90;2.40;;;18.60;99.90;;;;;;5093088;28;20816;-66
2022/07/29 04:12:35;;;;;;;3.70;2.80;;;18.80;99.90;;;;;;5091929;28;20460;-65
2022/07/29 04:15:02;;;;;;;3.70;3.20;;;18.90;99.90;;;;;;5093259;28;20445;-66
2022/07/29 04:17:28;;;;;;;2.80;2.60;;;19.00;99.90;;;;;;5092926;28;20928;-67
2022/07/29 04:19:57;;;;;;;3.30;3.00;;;18.90;99.90;;;;;;5092007;28;20451;-66
2022/07/29 04:22:24;;;;;;;2.97;2.77;;;19.00;99.90;;;;;;5092199;28;21000;-67
2022/07/29 04:24:50;;;;;;;3.20;3.00;;;18.90;99.90;;;;;;5092127;28;20437;-66
2022/07/29 04:27:17;;;;;;;2.80;2.60;;;18.90;99.90;;;;;;5092501;28;20476;-67
2022/07/29 04:29:44;;;;;;;4.37;2.70;;;18.90;99.90;;;;;;5091549;28;20525;-67
2022/07/29 04:32:11;;;;;;;2.97;2.67;;;19.00;99.90;;;;;;5092652;28;20436;-67
2022/07/29 04:34:38;;;;;;;3.30;3.00;;;19.10;99.90;;;;;;5091689;28;20819;-67
2022/07/29 04:37:06;;;;;;;2.80;2.60;;;19.00;99.90;;;;;;5096019;28;20465;-66
2022/07/29 04:39:33;;;;;;;2.90;2.70;;;18.80;99.90;;;;;;5092808;28;20924;-67
2022/07/29 04:42:00;;;;;;;3.10;2.80;;;18.80;99.90;;;;;;5091848;28;20473;-66
2022/07/29 04:44:28;;;;;;;3.70;3.30;;;18.80;99.90;;;;;;5092099;28;20801;-66
2022/07/29 04:46:55;;;;;;;4.43;2.77;;;18.70;99.90;;;;;;5091454;28;20510;-66
2022/07/29 04:49:23;;;;;;;3.50;3.20;;;18.80;99.90;;;;;;5092090;28;20944;-66
2022/07/29 04:51:50;;;;;;;2.30;2.10;;;18.70;99.90;;;;;;5090713;28;20480;-66
2022/07/29 04:54:18;;;;;;;3.27;2.50;;;18.70;99.90;;;;;;5091952;28;20472;-67
2022/07/29 04:56:46;;;;;;;2.90;2.60;;;18.90;99.90;;;;;;5091110;28;20981;-66
2022/07/29 04:59:13;;;;;;;2.63;2.43;;;18.80;99.90;;;;;;5092068;28;20938;-67
2022/07/29 05:01:39;;;;;;;3.57;3.00;;;18.90;99.90;;;;;;5089475;28;20489;-66
2022/07/29 05:04:06;;;;;;;2.87;2.57;;;19.00;99.90;;;;;;5091956;28;20862;-66
2022/07/29 05:06:34;;;;;;;2.70;2.10;;;19.00;99.90;;;;;;5091815;28;20465;-67
2022/07/29 05:09:00;;;;;;;2.13;1.93;;;19.10;99.90;;;;;;5092146;28;20790;-67
2022/07/29 05:11:29;;;;;;;3.10;2.40;;;19.40;99.90;;;;;;5090939;28;20548;-66
2022/07/29 05:13:55;;;;;;;2.40;2.20;;;19.60;99.90;;;;;;5091759;28;20531;-66
2022/07/29 05:16:22;;;;;;;2.40;2.20;;;19.70;99.90;;;;;;5091769;28;20452;-66
2022/07/29 05:18:49;;;;;;;3.10;2.20;;;19.80;99.90;;;;;;5091167;28;20433;-65
2022/07/29 05:21:16;;;;;;;2.43;1.80;;;19.80;99.90;;;;;;5087443;28;20482;-66
2022/07/29 05:23:42;;;;;;;2.50;2.30;;;19.90;99.90;;;;;;5090696;28;20437;-66
2022/07/29 05:26:09;;;;;;;2.80;2.37;;;19.90;29.40;;;;;;5087114;28;20449;-68
2022/07/29 05:28:37;;;;;;;3.00;1.93;;;19.90;66.20;;;;;;5090575;28;20436;-70
2022/07/29 05:31:04;;;;;;;2.40;2.20;;;20.10;15.00;;;;;;5091021;28;20498;-68
2022/07/29 05:33:31;;;;;;;11.20;5.93;;;20.30;1.00;;;;;;5091707;28;20460;-68
2022/07/29 05:35:58;;;;;;;2.70;2.07;;;20.30;1.00;;;;;;5093992;28;20515;-68
2022/07/29 05:38:25;;;;;;;1.73;1.57;;;20.30;1.00;;;;;;5091584;28;20528;-68
2022/07/29 05:40:52;;;;;;;2.33;2.10;;;20.30;1.00;;;;;;5090491;28;20473;-73
2022/07/29 05:43:19;;;;;;;1.80;1.57;;;20.50;1.00;;;;;;5093676;28;20440;-71
2022/07/29 05:45:47;;;;;;;2.43;2.00;;;20.60;99.90;;;;;;5100802;28;20524;-73
2022/07/29 05:48:14;;;;;;;2.70;2.30;;;20.60;99.90;;;;;;5108990;28;20467;-73
2022/07/29 05:50:40;;;;;;;2.63;1.90;;;20.70;1.00;;;;;;5101278;28;20500;-68
2022/07/29 05:53:07;;;;;;;2.20;2.00;;;20.80;99.90;;;;;;5086043;28;20520;-69
2022/07/29 05:55:34;;;;;;;2.70;2.40;;;20.90;99.90;;;;;;5090320;28;20934;-68
2022/07/29 05:58:01;;;;;;;2.17;1.97;;;;;;;;;;5086687;28;20463;-72
2022/07/29 06:00:29;;;;;;;2.13;1.93;;;;;;;;;;5090318;28;20484;-72
2022/07/29 06:02:58;;;;;;;1.77;1.67;;;;;;;;;;5080488;28;20493;-72
2022/07/29 06:05:25;;;;;;;2.83;2.50;;;;;;;;;;5084820;28;20943;-72
2022/07/29 06:07:53;;;;;;;3.50;2.10;;;;;;;;;;5086364;28;20446;-73
2022/07/29 06:10:20;;;;;;;1.97;1.77;;;;;;;;;;5078993;28;20447;-73
2022/07/29 06:12:47;;;;;;;2.60;2.20;;;;;;;;;;5084596;28;20959;-74
2022/07/29 06:15:15;;;;;;;1.83;1.73;;;;;;;;;;5081031;28;20439;-74
2022/07/29 06:17:42;;;;;;;2.23;2.00;;;;;;;;;;5085885;28;20487;-74
2022/07/29 06:20:12;;;;;;;1.90;1.80;;;;;;;;;;5078192;28;20449;-73
2022/07/29 06:22:39;;;;;;;2.20;1.90;;;;;;;;;;5090742;28;20989;-73
2022/07/29 06:25:06;;;;;;;3.53;1.77;;;;;;;;;;5091166;28;20453;-70
2022/07/29 06:27:34;;;;;;;2.70;2.50;;;;;;;;;;5091170;28;21043;-71
2022/07/29 06:30:01;;;;;;;2.73;2.30;;;;;;;;;;5091387;28;20916;-72
2022/07/29 06:32:28;;;;;;;2.70;2.10;;;;;;;;;;5090781;28;20456;-72
2022/07/29 06:34:55;;;;;;;2.60;2.40;;;;;;;;;;5091112;28;20469;-72
2022/07/29 06:37:24;;;;;;;4.43;2.30;;;;;;;;;;5090315;28;20932;-72
2022/07/29 06:40:59;;;;;;;2.60;2.40;;;;;;;;;;5090565;28;20904;-71
2022/07/29 06:42:39;;;;;;;3.00;2.30;;;;;;;;;;5090067;28;20484;-73
2022/07/29 06:45:06;;;;;;;2.93;2.63;;;;;;;;;;5090605;28;20798;-72
2022/07/29 06:47:33;;;;;;;2.27;2.10;;;;;;;;;;5090473;28;20466;-72
2022/07/29 06:50:01;;;;;;;2.30;2.10;;;;;;;;;;5089921;28;20448;-72
2022/07/29 06:52:29;;;;;;;2.47;2.27;;;;;;;;;;5092436;28;20535;-72
2022/07/29 06:54:56;;;;;;;2.07;1.87;;;;;;;;;;5093681;28;20444;-73
2022/07/29 06:57:24;;;;;;;2.60;2.40;;;;;;;;;;5093835;28;20937;-72
2022/07/29 06:59:51;;;;;;;2.60;2.40;;;;;;;;;;5086616;28;20520;-71
2022/07/29 07:02:18;;;;;;;3.50;2.13;;;;;;;;;;5086735;28;20501;-73
2022/07/29 07:04:45;;;;;;;2.23;2.03;;;;;;;;;;5090269;28;20445;-73
2022/07/29 07:07:12;;;;;;;4.23;2.53;;;;;;;;;;5098966;28;20528;-73
2022/07/29 07:09:41;;;;;;;2.30;2.10;;;;;;;;;;5093801;28;20523;-72
2022/07/29 07:12:08;;;;;;;2.70;2.50;;;;;;;;;;5093889;28;20539;-71
2022/07/29 07:14:35;;;;;;;2.40;2.20;;;;;;;;;;5093832;28;20445;-72
2022/07/29 07:17:03;;;;;;;2.40;2.10;;;;;;;;;;5094114;28;20444;-72
2022/07/29 07:19:30;;;;;;;2.60;2.30;;;;;;;;;;5094162;28;20444;-71
2022/07/29 07:21:58;;;;;;;2.60;2.37;;;;;;;;;;5092972;28;20473;-71
2022/07/29 07:24:25;;;;;;;2.57;2.37;;;;;;;;;;5094130;28;20460;-71
2022/07/29 07:26:53;;;;;;;2.33;2.13;;;;;;;;;;5093730;28;20448;-73
2022/07/29 07:29:20;;;;;;;2.67;2.37;;;;;;;;;;5090756;28;20441;-71
2022/07/29 07:31:48;;;;;;;4.37;2.97;;;;;;;;;;5093724;28;20441;-72
2022/07/29 07:34:15;;;;;;;2.90;2.70;;;;;;;;;;5093757;28;20571;-72
2022/07/29 07:36:42;;;;;;;2.57;2.37;;;;;;;;;;5093703;28;20775;-72
2022/07/29 07:39:09;;;;;;;3.60;2.67;;;;;;;;;;5094454;28;20527;-72
2022/07/29 07:41:36;;;;;;;2.60;2.40;;;;;;;;;;5093266;28;20471;-73
2022/07/29 07:44:05;;;;;;;3.17;2.53;;;;;;;;;;5093992;28;20444;-72
2022/07/29 07:46:33;;;;;;;2.83;2.30;;;;;;;;;;5092706;28;20472;-72
2022/07/29 07:49:00;;;;;;;2.93;2.60;;;;;;;;;;5093246;28;20473;-74
2022/07/29 07:51:27;;;;;;;3.60;3.10;;;;;;;;;;5093250;28;20445;-74
2022/07/29 07:53:54;;;;;;;2.37;2.17;;;;;;;;;;5092991;28;20792;-72
2022/07/29 07:56:21;;;;;;;2.27;2.10;;;;;;;;;;5093159;28;20494;-73
2022/07/29 07:58:48;;;;;;;2.47;2.27;;;;;;;;;;5092198;28;20437;-71
2022/07/29 08:01:19;;;;;;;3.20;2.90;;;;;;;;;;5089122;28;20453;-73
2022/07/29 08:03:46;;;;;;;2.20;2.00;;;;;;;;;;5081449;28;20490;-73
2022/07/29 08:06:13;;;;;;;2.83;2.60;;;;;;;;;;5090767;28;20524;-73
2022/07/29 08:08:40;;;;;;;2.40;2.10;;;;;;;;;;5084228;28;20448;-74
2022/07/29 08:11:07;;;;;;;2.10;1.90;;;;;;;;;;5102917;28;20441;-73
2022/07/29 08:13:35;;;;;;;3.37;2.70;;;;;;;;;;5101664;28;20476;-68
2022/07/29 08:16:10;;;;;;;3.33;3.00;;;;;;;;;;5099771;28;20484;-73
2022/07/29 08:18:39;;;;;;;2.60;2.40;;;;;;;;;;5084306;28;20436;-72
2022/07/29 08:21:06;;;;;;;2.70;2.50;;;;;;;;;;5093103;28;20440;-74
2022/07/29 08:23:38;;;;;;;3.10;2.80;;;;;;;;;;5092953;28;20559;-73
2022/07/29 08:26:05;;;;;;;2.70;2.30;;;;;;;;;;5089997;28;20433;-72
2022/07/29 08:28:33;;;;;;;2.67;2.47;;;;;;;;;;5092550;28;20518;-72
2022/07/29 08:31:00;;;;;;;3.00;2.53;;;;;;;;;;5091938;28;20955;-72
2022/07/29 08:33:27;;;;;;;3.40;3.10;;;;;;;;;;5091946;28;20445;-73
2022/07/29 08:35:55;;;;;;;2.17;2.07;;;;;;;;;;5095258;28;20847;-73
2022/07/29 08:38:23;;;;;;;2.63;2.43;;;;;;;;;;5093275;28;20441;-72
2022/07/29 08:40:50;;;;;;;2.80;2.60;;;;;;;;;;5091922;28;20439;-72
2022/07/29 08:43:17;;;;;;;3.07;2.77;;;;;;;;;;5093029;28;20907;-73
2022/07/29 08:45:45;;;;;;;2.97;2.77;;;;;;;;;;5091989;28;20938;-73
2022/07/29 08:48:13;;;;;;;3.03;2.43;;;;;;;;;;5092141;28;20440;-72
2022/07/29 08:50:41;;;;;;;3.00;2.53;;;;;;;;;;5091631;28;20468;-71
2022/07/29 08:53:12;;;;;;;3.00;2.67;;;;;;;;;;5081361;28;20917;-72
2022/07/29 08:55:40;;;;;;;2.70;2.50;;;;;;;;;;5084215;28;20433;-72
2022/07/29 08:58:08;;;;;;;2.93;2.73;;;;;;;;;;5089919;28;20444;-72
2022/07/29 09:00:36;;;;;;;3.13;2.83;;;;;;;;;;5087709;28;20532;-72
2022/07/29 09:03:05;;;;;;;2.50;2.27;;;;;;;;;;5083125;28;20496;-73
2022/07/29 09:05:34;;;;;;;3.00;2.80;;;;;;;;;;5080723;28;20446;-73
2022/07/29 09:08:01;;;;;;;3.07;2.77;;;;;;;;;;5087318;28;20443;-72
2022/07/29 09:10:29;;;;;;;2.63;2.43;;;;;;;;;;5091677;28;20530;-72
2022/07/29 09:12:57;;;;;;;2.93;2.73;;;;;;;;;;5089985;28;20510;-71
2022/07/29 09:15:24;;;;;;;4.80;2.90;;;;;;;;;;5080447;28;20524;-71
2022/07/29 09:17:51;;;;;;;3.03;2.73;;;;;;;;;;5090892;28;20528;-72
2022/07/29 09:20:19;;;;;;;2.93;2.63;;;;;;;;;;5086539;28;20447;-72
2022/07/29 09:22:49;;;;;;;2.80;2.60;;;;;;;;;;5091660;28;20563;-72
2022/07/29 09:25:16;;;;;;;3.17;2.90;;;;;;;;;;5091626;28;20476;-72
2022/07/29 09:27:51;;;;;;;2.83;2.63;;;;;;;;;;5091530;28;20451;-73
2022/07/29 09:30:18;;;;;;;3.30;3.00;;;;;;;;;;5091174;28;20911;-72
2022/07/29 09:33:00;;;;;;;3.23;2.93;;;;;;;;;;5090827;28;20475;-73
2022/07/29 09:35:28;;;;;;;3.23;2.50;;;;;;;;;;5093428;28;20558;-71
2022/07/29 09:37:55;;;;;;;2.87;2.67;;;;;;;;;;5092889;28;20455;-69
2022/07/29 09:40:24;;;;;;;2.83;2.63;;;;;;;;;;5090858;28;20433;-69
2022/07/29 09:42:55;;;;;;;3.60;3.20;;;;;;;;;;5094245;28;21043;-70
2022/07/29 09:45:29;;;;;;;3.30;3.00;;;;;;;;;;5095178;28;20458;-70
2022/07/29 09:47:58;;;;;;;3.87;3.53;;;;;;;;;;5093505;28;20432;-73
2022/07/29 09:50:37;;;;;;;3.50;3.03;;;;;;;;;;5092394;28;20448;-71
2022/07/29 09:53:04;;;;;;;3.03;2.73;;;;;;;;;;5092952;28;20447;-72
2022/07/29 09:55:31;;;;;;;3.93;3.63;;;;;;;;;;5091891;28;20855;-72
2022/07/29 09:58:13;;;;;;;3.53;3.27;;;;;;;;;;5090990;28;20444;-72
2022/07/29 10:00:43;;;;;;;3.63;3.33;;;;;;;;;;5084968;28;20448;-72
2022/07/29 10:03:10;;;;;;;3.40;3.10;;;;;;;;;;5088623;28;20556;-72
2022/07/29 10:05:37;;;;;;;3.13;2.93;;;;;;;;;;5091374;28;20849;-73
2022/07/29 10:08:05;;;;;;;4.97;3.70;;;;;;;;;;5081968;28;20528;-72
2022/07/29 10:10:34;;;;;;;3.70;3.40;;;;;;;;;;5087734;28;20824;-73
2022/07/29 10:13:02;;;;;;;3.73;3.43;;;;;;;;;;5086528;28;20446;-73
2022/07/29 10:15:30;;;;;;;3.60;3.30;;;;;;;;;;5086406;28;20520;-72
2022/07/29 10:17:59;;;;;;;3.03;2.83;;;;;;;;;;5078733;28;20943;-74
2022/07/29 10:20:27;;;;;;;3.53;2.90;;;;;;;;;;5087336;28;20891;-72
2022/07/29 10:22:55;;;;;;;3.60;3.40;;;;;;;;;;5088407;28;20838;-72
2022/07/29 10:25:23;;;;;;;3.70;3.30;;;;;;;;;;5088122;28;20440;-72
2022/07/29 10:27:51;;;;;;;3.73;3.43;;;;;;;;;;5089728;28;20923;-72
2022/07/29 10:30:19;;;;;;;4.37;3.97;;;;;;;;;;5091678;28;20444;-73
2022/07/29 10:33:00;;;;;;;4.07;3.47;;;;;;;;;;5091818;28;20463;-72
2022/07/29 10:35:53;;;;;;;3.23;2.93;;;;;;;;;;5095453;28;20528;-77
2022/07/29 10:38:32;;;;;;;4.13;3.83;;;;;;;;;;5092160;28;20448;-74
2022/07/29 10:43:48;;;;;;;4.00;3.70;;;;;;;;;;5088108;28;20464;-75
2022/07/29 10:46:16;;;;;;;4.13;3.77;;;;;;;;;;5092237;28;20463;-75
2022/07/29 10:49:01;;;;;;;3.60;3.30;;;;;;;;;;5091416;28;20461;-74
2022/07/29 10:51:50;;;;;;;3.87;3.57;;;;;;;;;;5090848;28;20981;-75
2022/07/29 10:54:17;;;;;;;3.77;3.40;;;;;;;;;;5092100;28;20495;-75
2022/07/29 10:56:44;;;;;;;4.37;3.70;;;;;;;;;;5090343;28;20829;-75
2022/07/29 10:59:30;;;;;;;3.80;3.50;;;;;;;;;;5081178;28;20538;-73
2022/07/29 11:01:57;;;;;;;5.27;4.33;;;;;;;;;;5089273;28;20449;-75
2022/07/29 11:04:42;;;;;;;4.03;3.73;;;;;;;;;;5089363;28;20923;-75
2022/07/29 11:07:11;;;;;;;3.40;3.10;;;;;;;;;;5086769;28;20449;-74
2022/07/29 11:09:38;;;;;;;4.90;3.83;;;;;;;;;;5081805;28;20804;-74
2022/07/29 11:12:07;;;;;;;4.10;3.70;;;;;;;;;;5090894;28;20456;-73
2022/07/29 11:14:52;;;;;;;5.43;4.40;;;;;;;;;;5091891;28;20448;-73
2022/07/29 11:17:20;;;;;;;5.87;5.27;;;;;;;;;;5086741;28;20567;-73
2022/07/29 11:19:47;;;;;;;5.70;4.77;;;;;;;;;;5090972;28;20525;-74
2022/07/29 11:22:33;;;;;;;5.80;5.30;;;;;;;;;;5091008;28;20948;-75
2022/07/29 11:25:14;;;;;;;7.87;5.20;;;;;;;;;;5090697;28;20881;-74
2022/07/29 11:27:41;;;;;;;5.07;4.57;;;;;;;;;;5089367;28;21015;-75
2022/07/29 11:30:09;;;;;;;5.57;4.97;;;;;;;;;;5090163;28;20459;-74
2022/07/29 11:32:37;;;;;;;9.47;6.80;;;;;;;;;;5090097;28;20478;-72
2022/07/29 11:35:15;;;;;;;6.30;5.43;;;;;;;;;;5096830;28;20494;-71
2022/07/29 11:37:44;;;;;;;6.10;5.50;;;;;;;;;;5090689;28;20452;-73
2022/07/29 11:40:18;;;;;;;7.40;5.47;;;;;;;;;;5091108;28;20445;-73
2022/07/29 11:42:49;;;;;;;6.50;5.40;;;;;;;;;;5077469;28;20468;-73
2022/07/29 11:45:20;;;;;;;5.47;4.97;;;;;;;;;;5090993;28;20540;-73
2022/07/29 11:47:54;;;;;;;6.40;5.07;;;;;;;;;;5090757;28;20491;-73
2022/07/29 11:50:29;;;;;;;6.20;5.60;;;;;;;;;;5090375;28;20454;-73
2022/07/29 11:52:58;;;;;;;5.93;5.33;;;;;;;;;;5080052;28;20501;-73
2022/07/29 11:55:26;;;;;;;6.37;5.77;;;;;;;;;;5083059;28;20464;-73
2022/07/29 11:57:53;;;;;;;5.67;4.70;;;;;;;;;;5084219;28;20447;-73
2022/07/29 12:00:25;;;;;;;6.00;4.40;;;;;;;;;;5089667;28;20445;-73
2022/07/29 12:02:52;;;;;;;4.67;4.27;;;;;;;;;;5086185;28;20547;-73
2022/07/29 12:05:20;;;;;;;4.90;3.30;;;;;;;;;;5087421;28;20495;-73
2022/07/29 12:07:48;;;;;;;4.27;3.40;;;;;;;;;;5083914;28;20495;-74
2022/07/29 12:10:17;;;;;;;3.50;3.20;;;;;;;;;;5089689;28;20445;-74
2022/07/29 12:12:44;;;;;;;4.73;2.80;;;;;;;;;;5085402;28;20460;-74
2022/07/29 12:15:17;;;;;;;3.83;2.90;;;;;;;;;;5082124;28;20455;-73
2022/07/29 12:17:44;;;;;;;3.00;2.70;;;;;;;;;;5082139;28;20449;-73
2022/07/29 12:20:12;;;;;;;3.90;3.40;;;;;;;;;;5109708;28;20517;-71
2022/07/29 12:22:40;;;;;;;2.97;2.77;;;;;;;;;;5109707;28;20491;-72
2022/07/29 12:25:09;;;;;;;3.40;3.10;;;;;;;;;;5103336;28;20476;-73
2022/07/29 12:27:38;;;;;;;3.70;3.30;;;;;;;;;;5090517;28;20448;-73
2022/07/29 12:30:06;;;;;;;3.97;3.13;;;;;;;;;;5090149;28;20444;-73
2022/07/29 12:32:34;;;;;;;3.43;3.13;;;;;;;;;;5090754;28;20484;-73
2022/07/29 12:35:03;;;;;;;4.30;3.90;;;;;;;;;;5091600;28;20893;-74
2022/07/29 12:37:30;;;;;;;4.03;3.07;;;;;;;;;;5091364;28;20453;-74
2022/07/29 12:39:57;;;;;;;4.27;3.87;;;;;;;;;;5089240;28;20456;-74
2022/07/29 12:42:25;;;;;;;5.63;3.00;;;;;;;;;;5090180;28;20455;-74
2022/07/29 12:44:53;;;;;;;3.53;3.23;;;;;;;;;;5089042;28;20480;-74
2022/07/29 12:47:21;;;;;;;4.70;3.77;;;;;;;;;;5090215;28;20812;-72
2022/07/29 12:49:48;;;;;;;5.60;4.30;;;;;;;;;;5088362;28;20445;-74
2022/07/29 12:52:25;;;;;;;3.80;3.23;;;;;;;;;;5089670;28;20456;-74
2022/07/29 12:54:52;;;;;;;4.30;3.67;;;;;;;;;;5089370;28;20782;-74
2022/07/29 12:57:19;;;;;;;4.17;3.77;;;;;;;;;;5085166;28;21223;-74
2022/07/29 12:59:46;;;;;;;6.70;4.03;;;;;;;;;;5087936;28;20474;-72
2022/07/29 13:02:23;;;;;;;6.40;4.33;;;;;;;;;;5088258;28;20452;-73
2022/07/29 13:04:57;;;;;;;5.37;4.20;;;;;;;;;;5087459;28;20828;-72
2022/07/29 13:07:26;;;;;;;4.53;4.03;;;;;;;;;;5093417;28;20441;-73
2022/07/29 13:09:54;;;;;;;6.07;4.60;;;;;;;;;;5088846;28;20472;-72
2022/07/29 13:12:22;;;;;;;5.63;4.00;;;;;;;;;;5089776;28;20448;-72
2022/07/29 13:14:50;;;;;;;3.50;3.20;;;;;;;;;;5089185;28;20754;-72
2022/07/29 13:17:18;;;;;;;4.77;4.23;;;;;;;;;;5087047;28;20896;-71
2022/07/29 13:19:48;;;;;;;6.47;5.50;;;21.10;1.00;;;;;;5088121;28;20498;-70
2022/07/29 13:22:16;;;;;;;5.80;4.60;;;20.30;99.90;;;;;;5088649;28;20449;-71
2022/07/29 13:24:48;;;;;;;6.67;3.93;;;20.20;99.90;;;;;;5087883;28;20569;-71
2022/07/29 13:27:16;;;;;;;7.03;4.80;;;20.10;99.90;;;;;;5083673;28;20948;-70
2022/07/29 13:29:44;;;;;;;11.30;5.10;;;19.90;99.90;;;;;;5087891;28;20456;-69
2022/07/29 13:32:11;;;;;;;7.07;5.40;;;20.00;99.90;;;;;;5089064;28;20440;-70
2022/07/29 13:34:38;;;;;;;5.40;4.90;;;20.00;99.90;;;;;;5088016;28;20555;-69
2022/07/29 13:37:07;;;;;;;7.30;5.03;;;19.90;99.90;;;;;;5089900;28;20967;-69
2022/07/29 13:39:34;;;;;;;4.87;4.37;;;20.00;99.90;;;;;;5088951;28;20940;-70
2022/07/29 13:42:01;;;;;;;4.03;3.63;;;20.00;99.90;;;;;;5088452;28;21032;-70
2022/07/29 13:44:27;;;;;;;4.67;3.97;;;20.00;99.90;;;;;;5089362;28;20476;-69
2022/07/29 13:46:55;;;;;;;5.87;5.10;;;20.00;99.90;;;;;;5088335;28;20540;-70
2022/07/29 13:49:22;;;;;;;6.17;5.00;;;20.00;99.90;;;;;;5088242;28;20992;-68
2022/07/29 13:51:50;;;;;;;4.73;4.23;;;20.10;99.90;;;;;;5087607;28;20488;-69
2022/07/29 13:54:18;;;;;;;5.47;5.03;;;20.20;99.90;;;;;;5088925;28;20539;-69
2022/07/29 13:56:46;;;;;;;5.70;4.40;;;;;;;;;;5087864;28;20449;-69
2022/07/29 13:59:13;;;;;;;5.97;5.40;;;;;;;;;;5087368;28;20447;-68
2022/07/29 14:01:41;;;;;;;4.90;4.40;;;;;;;;;;5074658;28;20493;-69
2022/07/29 14:04:09;;;;;;;5.30;4.07;;;;;;;;;;5076348;28;20488;-68
2022/07/29 14:06:37;;;;;;;4.60;4.20;;;;;;;;;;5082722;28;20826;-69
2022/07/29 14:09:05;;;;;;;4.60;4.20;;;;;;;;;;5081397;28;20528;-69
2022/07/29 14:11:34;;;;;;;4.63;4.23;;;;;;;;;;5083379;28;20865;-69
2022/07/29 14:14:02;;;;;;;5.57;5.07;;;;;;;;;;5087171;28;20575;-69
2022/07/29 14:16:29;;;;;;;4.93;4.40;;;;;;;;;;5082436;28;20451;-70
2022/07/29 14:18:56;;;;;;;4.93;4.20;;;;;;;;;;5079406;28;20455;-70
2022/07/29 14:21:23;;;;;;;4.93;4.50;;;;;;;;;;5088521;28;20459;-70
2022/07/29 14:23:51;;;;;;;5.07;4.57;;;;;;;;;;5088137;28;20995;-70
2022/07/29 14:26:19;;;;;;;5.53;4.50;;;;;;;;;;5088581;28;21284;-70
2022/07/29 14:28:47;;;;;;;4.70;4.30;;;;;;;;;;5088734;28;20445;-70
2022/07/29 14:31:14;;;;;;;4.20;3.80;;;;;;;;;;5089026;28;20820;-70
2022/07/29 14:33:42;;;;;;;6.17;4.63;;;;;;;;;;5089920;28;20480;-70